createdAt,value
2023-04-27T00:01:13.872Z,100554.19
2023-04-27T00:03:41.431Z,100555.16
2023-04-27T00:06:09.744Z,100560.47
2023-04-27T00:08:36.844Z,100554.19
2023-04-27T00:11:03.863Z,100546.31
2023-04-27T00:13:30.546Z,100549.81
2023-04-27T00:15:57.168Z,100548.88
2023-04-27T00:18:23.826Z,100560.41
2023-04-27T00:20:50.565Z,100554.88
2023-04-27T00:23:17.199Z,100557.28
2023-04-27T00:25:43.852Z,100561.75
2023-04-27T00:28:10.660Z,100552.06
2023-04-27T00:30:37.238Z,100560.19
2023-04-27T00:33:04.004Z,100560.31
2023-04-27T00:35:32.159Z,100560.31
2023-04-27T00:37:58.830Z,100555.66
2023-04-27T00:40:25.423Z,100547.00
2023-04-27T00:42:52.090Z,100549.91
2023-04-27T00:45:18.658Z,100542.94
2023-04-27T00:47:46.018Z,100547.59
2023-04-27T00:50:12.675Z,100544.47
2023-04-27T00:52:39.526Z,100545.84
2023-04-27T00:55:07.266Z,100551.59
2023-04-27T00:57:34.374Z,100553.66
2023-04-27T01:00:02.272Z,100554.69
2023-04-27T01:02:30.095Z,100551.59
2023-04-27T01:04:57.182Z,100556.31
2023-04-27T01:07:26.917Z,100555.03
2023-04-27T01:09:53.675Z,100547.63
2023-04-27T01:12:20.571Z,100555.09
2023-04-27T01:14:47.121Z,100548.41
2023-04-27T01:17:14.227Z,100555.78
2023-04-27T01:19:41.222Z,100552.91
2023-04-27T01:22:08.026Z,100553.22
2023-04-27T01:24:34.680Z,100554.66
2023-04-27T01:27:01.785Z,100555.16
2023-04-27T01:29:28.498Z,100560.06
2023-04-27T01:31:55.101Z,100562.34
2023-04-27T01:34:21.839Z,100565.31
2023-04-27T01:36:48.456Z,100568.22
2023-04-27T01:39:15.338Z,100561.41
2023-04-27T01:41:42.102Z,100565.25
2023-04-27T01:44:08.748Z,100570.63
2023-04-27T01:46:35.504Z,100568.28
2023-04-27T01:49:02.431Z,100570.88
2023-04-27T01:51:29.040Z,100574.91
2023-04-27T01:53:55.752Z,100576.16
2023-04-27T01:56:22.336Z,100578.09
2023-04-27T01:58:48.895Z,100578.53
2023-04-27T02:01:15.767Z,100583.31
2023-04-27T02:03:42.477Z,100585.16
2023-04-27T02:06:09.477Z,100579.16
2023-04-27T02:08:36.326Z,100586.47
2023-04-27T02:11:03.328Z,100586.25
2023-04-27T02:13:29.909Z,100586.09
2023-04-27T02:15:56.666Z,100580.84
2023-04-27T02:18:24.246Z,100593.34
2023-04-27T02:20:50.877Z,100581.16
2023-04-27T02:23:17.432Z,100589.22
2023-04-27T02:25:46.801Z,100588.41
2023-04-27T02:28:14.220Z,100600.09
2023-04-27T02:30:41.520Z,100594.72
2023-04-27T02:33:08.218Z,100602.59
2023-04-27T02:35:34.865Z,100598.38
2023-04-27T02:38:01.619Z,100602.13
2023-04-27T02:40:28.439Z,100607.13
2023-04-27T02:42:54.982Z,100605.97
2023-04-27T02:45:21.619Z,100604.84
2023-04-27T02:47:48.927Z,100612.41
2023-04-27T02:50:15.624Z,100605.25
2023-04-27T02:52:42.195Z,100609.56
2023-04-27T02:55:09.283Z,100612.28
2023-04-27T02:57:36.064Z,100616.63
2023-04-27T03:00:04.431Z,100615.81
2023-04-27T03:02:31.045Z,100620.06
2023-04-27T03:04:59.195Z,100623.53
2023-04-27T03:07:25.844Z,100619.94
2023-04-27T03:09:52.473Z,100623.47
2023-04-27T03:12:19.077Z,100622.66
2023-04-27T03:14:45.845Z,100629.84
2023-04-27T03:17:12.438Z,100635.22
2023-04-27T03:19:39.020Z,100637.09
2023-04-27T03:22:05.695Z,100630.91
2023-04-27T03:24:33.282Z,100634.28
2023-04-27T03:26:59.886Z,100633.44
2023-04-27T03:29:27.664Z,100635.94
2023-04-27T03:31:54.244Z,100636.81
2023-04-27T03:34:21.933Z,100638.75
2023-04-27T03:36:48.521Z,100645.06
2023-04-27T03:39:15.468Z,100645.91
2023-04-27T03:41:42.602Z,100649.44
2023-04-27T03:44:09.681Z,100648.72
2023-04-27T03:46:36.371Z,100647.06
2023-04-27T03:49:03.254Z,100648.84
2023-04-27T03:51:32.169Z,100654.16
2023-04-27T03:53:59.265Z,100652.44
2023-04-27T03:56:28.359Z,100652.38
2023-04-27T03:58:54.952Z,100660.28
2023-04-27T04:01:22.010Z,100663.75
2023-04-27T04:03:48.982Z,100660.97
2023-04-27T04:06:15.699Z,100656.75
2023-04-27T04:08:42.497Z,100664.69
2023-04-27T04:11:09.091Z,100670.88
2023-04-27T04:13:36.572Z,100675.19
2023-04-27T04:16:08.290Z,100674.09
2023-04-27T04:18:36.164Z,100665.94
2023-04-27T04:21:03.338Z,100678.97
2023-04-27T04:23:29.959Z,100683.13
2023-04-27T04:25:56.713Z,100678.38
2023-04-27T04:28:23.942Z,100682.53
2023-04-27T04:30:51.188Z,100685.91
2023-04-27T04:33:18.140Z,100687.47
2023-04-27T04:35:44.802Z,100684.69
2023-04-27T04:38:11.443Z,100694.19
2023-04-27T04:40:44.444Z,100689.53
2023-04-27T04:43:13.372Z,100688.38
2023-04-27T04:45:40.096Z,100692.44
2023-04-27T04:48:06.692Z,100687.75
2023-04-27T04:50:33.617Z,100696.19
2023-04-27T04:53:00.281Z,100693.22
2023-04-27T04:55:28.384Z,100690.25
2023-04-27T04:57:55.136Z,100697.97
2023-04-27T05:00:22.453Z,100696.63
2023-04-27T05:02:49.532Z,100698.78
2023-04-27T05:05:16.723Z,100703.66
2023-04-27T05:07:43.418Z,100696.06
2023-04-27T05:10:10.196Z,100698.13
2023-04-27T05:12:36.821Z,100695.84
2023-04-27T05:15:03.952Z,100709.44
2023-04-27T05:17:30.676Z,100711.69
2023-04-27T05:19:58.246Z,100714.72
2023-04-27T05:22:25.043Z,100718.69
2023-04-27T05:24:51.942Z,100716.28
2023-04-27T05:27:18.610Z,100713.97
2023-04-27T05:29:45.176Z,100726.72
2023-04-27T05:32:11.917Z,100723.50
2023-04-27T05:34:38.589Z,100720.06
2023-04-27T05:37:05.352Z,100721.34
2023-04-27T05:39:32.102Z,100724.28
2023-04-27T05:41:58.944Z,100723.63
2023-04-27T05:44:28.516Z,100728.44
2023-04-27T05:46:58.383Z,100717.81
2023-04-27T05:49:24.973Z,100721.50
2023-04-27T05:51:51.927Z,100724.25
2023-04-27T05:54:18.507Z,100725.56
2023-04-27T05:56:45.062Z,100727.97
2023-04-27T05:59:11.900Z,100726.91
2023-04-27T06:01:38.940Z,100722.09
2023-04-27T06:04:05.825Z,100729.16
2023-04-27T06:06:33.254Z,100730.00
2023-04-27T06:09:05.925Z,100730.84
2023-04-27T06:11:32.490Z,100730.69
2023-04-27T06:13:59.069Z,100732.91
2023-04-27T06:16:25.847Z,100722.78
2023-04-27T06:18:52.586Z,100727.63
2023-04-27T06:21:19.151Z,100738.03
2023-04-27T06:23:46.037Z,100733.53
2023-04-27T06:26:12.620Z,100737.94
2023-04-27T06:28:39.274Z,100734.50
2023-04-27T06:31:06.435Z,100738.13
2023-04-27T06:33:33.615Z,100741.78
2023-04-27T06:36:01.302Z,100736.81
2023-04-27T06:38:27.953Z,100737.56
2023-04-27T06:40:54.986Z,100742.94
2023-04-27T06:43:22.267Z,100739.28
2023-04-27T06:45:48.902Z,100746.25
2023-04-27T06:48:15.595Z,100744.31
2023-04-27T06:50:42.181Z,100750.28
2023-04-27T06:53:09.014Z,100741.59
2023-04-27T06:55:38.199Z,100750.56
2023-04-27T06:58:04.853Z,100744.19
2023-04-27T07:00:32.249Z,100745.34
2023-04-27T07:02:59.061Z,100744.66
2023-04-27T07:05:26.142Z,100749.97
2023-04-27T07:07:52.921Z,100742.84
2023-04-27T07:10:19.602Z,100745.56
2023-04-27T07:12:46.614Z,100742.41
2023-04-27T07:15:13.496Z,100738.06
2023-04-27T07:17:40.160Z,100737.44
2023-04-27T07:20:07.573Z,100742.84
2023-04-27T07:22:34.289Z,100747.25
2023-04-27T07:25:00.990Z,100748.84
2023-04-27T07:27:27.640Z,100749.13
2023-04-27T07:29:54.807Z,100749.34
2023-04-27T07:32:22.777Z,100753.00
2023-04-27T07:34:54.061Z,100751.97
2023-04-27T07:37:21.297Z,100749.63
2023-04-27T07:39:49.364Z,100753.03
2023-04-27T07:42:16.222Z,100757.09
2023-04-27T07:44:42.888Z,100746.22
2023-04-27T07:47:09.538Z,100736.44
2023-04-27T07:49:37.515Z,100735.81
2023-04-27T07:52:04.846Z,100739.34
2023-04-27T07:54:31.675Z,100738.81
2023-04-27T07:56:58.290Z,100737.84
2023-04-27T07:59:24.995Z,100739.19
2023-04-27T08:01:51.741Z,100743.09
2023-04-27T08:04:19.252Z,100743.69
2023-04-27T08:06:47.040Z,100745.53
2023-04-27T08:09:14.153Z,100742.41
2023-04-27T08:11:41.111Z,100737.31
2023-04-27T08:14:13.436Z,100739.16
2023-04-27T08:16:44.022Z,100747.41
2023-04-27T08:19:11.730Z,100739.84
2023-04-27T08:21:39.219Z,100739.38
2023-04-27T08:24:06.543Z,100736.25
2023-04-27T08:26:33.801Z,100738.44
2023-04-27T08:29:01.976Z,100736.56
2023-04-27T08:31:31.482Z,100736.38
2023-04-27T08:33:58.954Z,100736.63
2023-04-27T08:36:26.252Z,100744.13
2023-04-27T08:38:52.876Z,100739.88
2023-04-27T08:41:23.649Z,100736.75
2023-04-27T08:43:51.568Z,100748.03
2023-04-27T08:46:21.794Z,100744.00
2023-04-27T08:48:52.362Z,100746.47
2023-04-27T08:51:20.268Z,100744.63
2023-04-27T08:53:48.905Z,100745.91
2023-04-27T08:56:15.689Z,100737.50
2023-04-27T08:58:44.722Z,100749.38
2023-04-27T09:01:11.583Z,100739.84
2023-04-27T09:03:38.847Z,100732.19
2023-04-27T09:06:06.310Z,100738.00
2023-04-27T09:08:46.935Z,100726.00
2023-04-27T09:11:14.685Z,100733.91
2023-04-27T09:13:45.028Z,100725.69
2023-04-27T09:16:15.017Z,100732.22
2023-04-27T09:18:43.890Z,100733.63
2023-04-27T09:21:10.674Z,100727.13
2023-04-27T09:23:39.149Z,100736.59
2023-04-27T09:26:09.988Z,100733.75
2023-04-27T09:28:41.331Z,100728.19
2023-04-27T09:31:09.623Z,100725.03
2023-04-27T09:33:36.764Z,100726.09
2023-04-27T09:36:07.621Z,100714.19
2023-04-27T09:38:34.346Z,100704.78
2023-04-27T09:41:01.680Z,100712.31
2023-04-27T09:43:29.997Z,100713.31
2023-04-27T09:45:57.693Z,100704.66
2023-04-27T09:48:25.701Z,100711.34
2023-04-27T09:50:52.975Z,100709.16
2023-04-27T09:53:51.828Z,100703.47
2023-04-27T09:56:55.968Z,100709.25
2023-04-27T09:59:54.758Z,100692.31
2023-04-27T10:02:24.862Z,100691.25
2023-04-27T10:05:16.734Z,100706.78
2023-04-27T10:07:45.347Z,100692.56
2023-04-27T10:10:20.384Z,100687.22
2023-04-27T10:12:58.075Z,100697.03
2023-04-27T10:15:28.785Z,100687.03
2023-04-27T10:17:58.774Z,100691.38
2023-04-27T10:20:33.645Z,100687.81
2023-04-27T10:23:00.961Z,100691.44
2023-04-27T10:25:38.296Z,100672.16
2023-04-27T10:28:05.132Z,100677.13
2023-04-27T10:30:37.133Z,100686.00
2023-04-27T10:33:09.520Z,100678.59
2023-04-27T10:35:54.694Z,100678.16
2023-04-27T10:38:28.797Z,100670.38
2023-04-27T10:41:03.047Z,100675.78
2023-04-27T10:43:31.939Z,100680.97
2023-04-27T10:46:12.903Z,100674.59
2023-04-27T10:48:41.212Z,100679.50
2023-04-27T10:51:07.948Z,100680.53
2023-04-27T10:53:36.196Z,100677.00
2023-04-27T10:56:05.211Z,100677.53
2023-04-27T10:58:41.559Z,100674.13
2023-04-27T11:01:25.640Z,100675.66
2023-04-27T11:03:57.165Z,100676.50
2023-04-27T11:06:23.852Z,100675.50
2023-04-27T11:08:51.516Z,100669.34
2023-04-27T11:11:18.270Z,100674.31
2023-04-27T11:13:44.935Z,100665.63
2023-04-27T11:16:11.563Z,100675.81
2023-04-27T11:18:38.602Z,100670.22
2023-04-27T11:21:16.601Z,100667.16
2023-04-27T11:23:43.745Z,100667.63
2023-04-27T11:26:14.885Z,100662.56
2023-04-27T11:28:56.891Z,100661.91
2023-04-27T11:31:23.537Z,100667.84
2023-04-27T11:33:51.048Z,100667.84
2023-04-27T11:36:23.102Z,100656.94
2023-04-27T11:38:49.946Z,100651.25
2023-04-27T11:41:16.724Z,100658.78
2023-04-27T11:43:47.775Z,100654.34
2023-04-27T11:46:14.468Z,100655.84
2023-04-27T11:48:41.303Z,100655.13
2023-04-27T11:51:10.867Z,100658.31
2023-04-27T11:53:39.917Z,100656.50
2023-04-27T11:56:13.680Z,100662.50
2023-04-27T11:58:40.470Z,100656.50
2023-04-27T12:01:10.386Z,100663.53
2023-04-27T12:03:37.845Z,100660.16
2023-04-27T12:06:21.701Z,100659.34
2023-04-27T12:08:51.551Z,100656.72
2023-04-27T12:11:18.620Z,100652.47
2023-04-27T12:13:45.176Z,100651.41
2023-04-27T12:16:11.860Z,100659.25
2023-04-27T12:18:38.394Z,100648.22
2023-04-27T12:23:34.772Z,100652.25
2023-04-27T12:26:01.431Z,100651.56
2023-04-27T12:28:27.993Z,100657.00
2023-04-27T12:30:57.983Z,100651.16
2023-04-27T12:33:24.804Z,100649.50
2023-04-27T12:35:52.076Z,100647.25
2023-04-27T12:38:18.679Z,100644.72
2023-04-27T12:40:45.250Z,100637.88
2023-04-27T12:43:12.903Z,100636.91
2023-04-27T12:45:39.629Z,100638.69
2023-04-27T12:48:06.556Z,100635.88
2023-04-27T12:50:33.228Z,100626.69
2023-04-27T12:53:00.314Z,100630.56
2023-04-27T12:55:33.846Z,100630.75
2023-04-27T12:58:01.375Z,100639.94
2023-04-27T13:00:29.542Z,100640.16
2023-04-27T13:02:56.967Z,100639.94
2023-04-27T13:05:23.846Z,100637.19
2023-04-27T13:07:50.447Z,100635.09
2023-04-27T13:10:17.086Z,100646.63
2023-04-27T13:12:43.736Z,100642.66
2023-04-27T13:15:10.815Z,100637.78
2023-04-27T13:17:37.507Z,100639.53
2023-04-27T13:20:04.376Z,100629.25
2023-04-27T13:22:30.941Z,100635.00
2023-04-27T13:24:59.048Z,100634.81
2023-04-27T13:27:28.381Z,100639.56
2023-04-27T13:29:55.247Z,100639.16
2023-04-27T13:32:22.633Z,100622.81
2023-04-27T13:34:49.405Z,100630.34
2023-04-27T13:37:16.622Z,100635.25
2023-04-27T13:39:43.304Z,100650.66
2023-04-27T13:42:10.159Z,100652.69
2023-04-27T13:44:36.916Z,100652.59
2023-04-27T13:47:03.592Z,100652.94
2023-04-27T13:49:30.330Z,100642.91
2023-04-27T13:51:56.971Z,100631.22
2023-04-27T13:54:23.665Z,100633.56
2023-04-27T13:56:50.242Z,100622.81
2023-04-27T13:59:17.224Z,100633.69
2023-04-27T14:01:44.018Z,100636.59
2023-04-27T14:04:10.770Z,100634.06
2023-04-27T14:06:37.580Z,100628.25
2023-04-27T14:09:04.837Z,100637.94
2023-04-27T14:11:37.217Z,100641.25
2023-04-27T14:14:08.910Z,100646.59
2023-04-27T14:16:35.743Z,100646.63
2023-04-27T14:19:02.385Z,100640.72
2023-04-27T14:21:28.965Z,100645.44
2023-04-27T14:23:55.497Z,100643.19
2023-04-27T14:26:22.044Z,100647.28
2023-04-27T14:28:48.576Z,100644.09
2023-04-27T14:31:15.147Z,100648.41
2023-04-27T14:33:41.694Z,100639.97
2023-04-27T14:36:08.558Z,100650.91
2023-04-27T14:38:35.072Z,100645.66
2023-04-27T14:41:03.043Z,100650.00
2023-04-27T14:43:29.673Z,100652.34
2023-04-27T14:46:02.099Z,100647.63
2023-04-27T14:48:35.056Z,100643.69
2023-04-27T14:51:02.325Z,100647.63
2023-04-27T14:53:28.948Z,100648.09
2023-04-27T14:55:55.530Z,100653.13
2023-04-27T14:58:22.156Z,100644.41
2023-04-27T15:00:50.896Z,100655.94
2023-04-27T15:03:17.610Z,100656.28
2023-04-27T15:05:44.396Z,100649.19
2023-04-27T15:08:11.634Z,100650.53
2023-04-27T15:10:38.227Z,100653.75
2023-04-27T15:13:04.761Z,100647.41
2023-04-27T15:15:31.477Z,100646.78
2023-04-27T15:17:59.077Z,100651.00
2023-04-27T15:20:25.692Z,100653.59
2023-04-27T15:22:52.311Z,100650.59
2023-04-27T15:25:19.198Z,100655.19
2023-04-27T15:27:45.805Z,100643.44
2023-04-27T15:30:14.265Z,100652.59
2023-04-27T15:32:41.110Z,100645.41
2023-04-27T15:35:08.371Z,100642.50
2023-04-27T15:37:36.734Z,100646.72
2023-04-27T15:40:04.274Z,100647.03
2023-04-27T15:42:30.974Z,100647.84
2023-04-27T15:44:57.960Z,100643.06
2023-04-27T15:47:24.511Z,100650.81
2023-04-27T15:49:57.393Z,100644.88
2023-04-27T15:52:26.888Z,100650.75
2023-04-27T15:54:53.717Z,100653.66
2023-04-27T15:57:20.499Z,100654.25
2023-04-27T15:59:47.085Z,100651.72
2023-04-27T16:02:13.838Z,100649.75
2023-04-27T16:04:40.675Z,100649.91
2023-04-27T16:07:07.447Z,100649.75
2023-04-27T16:09:34.360Z,100650.19
2023-04-27T16:12:01.938Z,100652.31
2023-04-27T16:14:28.563Z,100650.22
2023-04-27T16:16:59.466Z,100668.50
2023-04-27T16:19:27.509Z,100660.41
2023-04-27T16:21:54.198Z,100665.25
2023-04-27T16:24:21.286Z,100667.03
2023-04-27T16:26:48.236Z,100662.88
2023-04-27T16:29:15.079Z,100671.94
2023-04-27T16:31:42.766Z,100665.22
2023-04-27T16:34:09.608Z,100669.22
2023-04-27T16:36:36.603Z,100668.03
2023-04-27T16:39:05.066Z,100673.25
2023-04-27T16:41:31.863Z,100672.84
2023-04-27T16:43:58.464Z,100675.53
2023-04-27T16:46:25.137Z,100672.63
2023-04-27T16:48:51.802Z,100678.97
2023-04-27T16:51:18.402Z,100671.97
2023-04-27T16:53:45.027Z,100673.34
2023-04-27T16:56:13.466Z,100679.66
2023-04-27T16:58:40.969Z,100682.59
2023-04-27T17:01:07.909Z,100687.56
2023-04-27T17:03:36.178Z,100694.72
2023-04-27T17:06:03.453Z,100689.19
2023-04-27T17:08:30.171Z,100699.59
2023-04-27T17:10:56.767Z,100699.50
2023-04-27T17:13:23.609Z,100702.13
2023-04-27T17:15:50.631Z,100705.81
2023-04-27T17:18:17.860Z,100715.06
2023-04-27T17:20:44.493Z,100713.38
2023-04-27T17:23:11.084Z,100712.88
2023-04-27T17:25:37.664Z,100716.41
2023-04-27T17:28:04.346Z,100717.16
2023-04-27T17:30:31.258Z,100715.56
2023-04-27T17:32:57.962Z,100723.16
2023-04-27T17:35:24.732Z,100723.47
2023-04-27T17:37:52.036Z,100729.72
2023-04-27T17:40:20.999Z,100725.97
2023-04-27T17:42:47.809Z,100729.31
2023-04-27T17:45:14.868Z,100726.00
2023-04-27T17:47:41.659Z,100732.97
2023-04-27T17:50:08.857Z,100728.91
2023-04-27T17:52:35.797Z,100736.34
2023-04-27T17:55:02.965Z,100738.50
2023-04-27T17:57:29.634Z,100739.13
2023-04-27T17:59:56.176Z,100748.41
2023-04-27T18:02:23.276Z,100748.28
2023-04-27T18:04:50.073Z,100753.69
2023-04-27T18:07:18.626Z,100756.91
2023-04-27T18:09:45.679Z,100753.88
2023-04-27T18:12:12.607Z,100762.50
2023-04-27T18:14:39.433Z,100757.31
2023-04-27T18:17:06.314Z,100760.28
2023-04-27T18:19:32.891Z,100761.59
2023-04-27T18:21:59.538Z,100770.50
2023-04-27T18:24:26.153Z,100769.13
2023-04-27T18:26:52.889Z,100770.03
2023-04-27T18:29:19.442Z,100774.31
2023-04-27T18:31:46.299Z,100786.97
2023-04-27T18:34:14.725Z,100781.63
2023-04-27T18:36:41.355Z,100796.03
2023-04-27T18:39:08.002Z,100796.72
2023-04-27T18:41:34.653Z,100800.84
2023-04-27T18:44:07.088Z,100797.00
2023-04-27T18:46:34.683Z,100802.66
2023-04-27T18:49:02.159Z,100811.28
2023-04-27T18:51:29.385Z,100813.25
2023-04-27T18:53:57.513Z,100811.44
2023-04-27T18:56:24.278Z,100811.44
2023-04-27T18:58:51.572Z,100813.91
2023-04-27T19:01:26.063Z,100813.53
2023-04-27T19:03:53.586Z,100824.16
2023-04-27T19:06:21.217Z,100824.44
2023-04-27T19:08:48.287Z,100825.53
2023-04-27T19:11:17.899Z,100825.34
2023-04-27T19:13:47.753Z,100822.47
2023-04-27T19:16:15.542Z,100827.63
2023-04-27T19:18:42.178Z,100824.75
2023-04-27T19:21:10.057Z,100834.06
2023-04-27T19:23:36.744Z,100829.97
2023-04-27T19:26:12.452Z,100836.16
2023-04-27T19:28:40.131Z,100836.44
2023-04-27T19:31:07.897Z,100843.53
2023-04-27T19:33:34.580Z,100842.03
2023-04-27T19:36:01.166Z,100843.44
2023-04-27T19:38:27.856Z,100840.41
2023-04-27T19:40:54.430Z,100839.34
2023-04-27T19:43:21.743Z,100842.13
2023-04-27T19:45:49.293Z,100835.53
2023-04-27T19:48:16.165Z,100840.91
2023-04-27T19:50:43.433Z,100839.84
2023-04-27T19:53:10.944Z,100842.88
2023-04-27T19:55:37.862Z,100840.81
2023-04-27T19:58:04.585Z,100842.47
2023-04-27T20:00:31.169Z,100844.78
2023-04-27T20:02:57.997Z,100848.06
2023-04-27T20:05:25.160Z,100849.50
2023-04-27T20:07:52.012Z,100839.78
2023-04-27T20:10:18.717Z,100840.81
2023-04-27T20:12:56.223Z,100842.81
2023-04-27T20:15:24.878Z,100837.66
2023-04-27T20:17:52.688Z,100840.03
2023-04-27T20:20:19.612Z,100842.53
2023-04-27T20:22:46.200Z,100839.94
2023-04-27T20:25:14.611Z,100839.84
2023-04-27T20:27:41.642Z,100846.63
2023-04-27T20:30:08.977Z,100845.50
2023-04-27T20:32:36.345Z,100841.19
2023-04-27T20:35:04.832Z,100847.78
2023-04-27T20:37:32.417Z,100852.94
2023-04-27T20:39:59.456Z,100845.38
2023-04-27T20:42:26.096Z,100850.25
2023-04-27T20:44:54.871Z,100859.59
2023-04-27T20:47:21.949Z,100856.34
2023-04-27T20:49:48.714Z,100860.03
2023-04-27T20:52:15.487Z,100856.00
2023-04-27T20:54:42.412Z,100857.31
2023-04-27T20:57:13.489Z,100858.91
2023-04-27T20:59:41.152Z,100863.44
2023-04-27T21:02:08.241Z,100860.00
2023-04-27T21:04:34.957Z,100863.59
2023-04-27T21:07:01.609Z,100861.13
2023-04-27T21:09:28.257Z,100865.66
2023-04-27T21:11:54.843Z,100864.16
2023-04-27T21:14:21.457Z,100863.00
2023-04-27T21:16:48.139Z,100867.94
2023-04-27T21:19:16.543Z,100861.22
2023-04-27T21:21:43.266Z,100866.66
2023-04-27T21:24:09.867Z,100882.84
2023-04-27T21:26:36.684Z,100881.00
2023-04-27T21:29:05.622Z,100883.69
2023-04-27T21:31:33.278Z,100885.50
2023-04-27T21:34:00.127Z,100886.00
2023-04-27T21:36:26.794Z,100889.72
2023-04-27T21:38:53.434Z,100886.44
2023-04-27T21:41:19.985Z,100885.28
2023-04-27T21:43:46.750Z,100885.28
2023-04-27T21:46:13.399Z,100883.16
2023-04-27T21:48:39.991Z,100891.06
2023-04-27T21:51:06.568Z,100887.53
2023-04-27T21:53:33.118Z,100894.22
2023-04-27T21:56:00.064Z,100896.25
2023-04-27T21:58:26.777Z,100892.47
2023-04-27T22:00:53.344Z,100900.28
2023-04-27T22:03:20.110Z,100898.16
2023-04-27T22:05:48.942Z,100900.19
2023-04-27T22:08:17.357Z,100898.38
2023-04-27T22:10:45.204Z,100898.16
2023-04-27T22:15:41.385Z,100898.38
2023-04-27T22:18:08.120Z,100904.84
2023-04-27T22:20:35.079Z,100903.84
2023-04-27T22:23:01.825Z,100904.06
2023-04-27T22:25:28.481Z,100917.25
2023-04-27T22:27:55.113Z,100911.84
2023-04-27T22:30:21.753Z,100918.19
2023-04-27T22:32:48.541Z,100906.72
2023-04-27T22:35:25.332Z,100915.84
2023-04-27T22:37:53.629Z,100922.31
2023-04-27T22:40:20.358Z,100917.22
2023-04-27T22:42:46.901Z,100919.00
2023-04-27T22:45:13.661Z,100926.44
2023-04-27T22:47:41.375Z,100929.31
2023-04-27T22:50:08.716Z,100928.78
2023-04-27T22:52:37.335Z,100927.91
2023-04-27T22:55:04.519Z,100925.31
2023-04-27T22:57:31.507Z,100929.84
2023-04-27T22:59:58.134Z,100929.06
2023-04-27T23:02:24.843Z,100927.13
2023-04-27T23:04:51.571Z,100925.03
2023-04-27T23:07:18.278Z,100930.91
2023-04-27T23:09:45.819Z,100930.59
2023-04-27T23:12:12.506Z,100930.47
2023-04-27T23:14:40.558Z,100931.31
2023-04-27T23:17:07.531Z,100927.22
2023-04-27T23:19:34.703Z,100926.53
2023-04-27T23:22:01.817Z,100920.19
2023-04-27T23:24:31.539Z,100923.88
2023-04-27T23:26:58.514Z,100934.81
2023-04-27T23:29:25.484Z,100927.84
2023-04-27T23:31:52.114Z,100931.81
2023-04-27T23:34:18.876Z,100927.78
2023-04-27T23:36:45.433Z,100935.19
2023-04-27T23:39:12.294Z,100927.38
2023-04-27T23:41:38.818Z,100925.50
2023-04-27T23:44:05.366Z,100929.97
2023-04-27T23:46:32.007Z,100932.69
2023-04-27T23:48:58.614Z,100925.72
2023-04-27T23:51:25.292Z,100922.28
2023-04-27T23:53:51.880Z,100926.56
2023-04-27T23:56:19.349Z,100926.72
2023-04-27T23:58:46.044Z,100937.31
